sensor_id;sensor_type;location;lat;lon;timestamp;temperature;humidity
6468;DHT22;3267;48.794;9.928;2022-09-21T04:01:36;10.00;70.00
6468;DHT22;3267;48.794;9.928;2022-09-21T04:04:02;10.00;70.00
6468;DHT22;3267;48.794;9.928;2022-09-21T04:06:28;9.90;70.90
6468;DHT22;3267;48.794;9.928;2022-09-21T04:08:54;9.90;71.00
6468;DHT22;3267;48.794;9.928;2022-09-21T04:11:22;9.80;71.10
6468;DHT22;3267;48.794;9.928;2022-09-21T04:13:51;10.50;70.80
6468;DHT22;3267;48.794;9.928;2022-09-21T04:16:22;9.80;71.00
6468;DHT22;3267;48.794;9.928;2022-09-21T04:18:49;9.80;71.00
6468;DHT22;3267;48.794;9.928;2022-09-21T04:21:34;9.80;71.10
6468;DHT22;3267;48.794;9.928;2022-09-21T04:24:00;9.90;71.00
6468;DHT22;3267;48.794;9.928;2022-09-21T04:26:33;9.80;70.90
6468;DHT22;3267;48.794;9.928;2022-09-21T04:29:00;11.90;72.60
6468;DHT22;3267;48.794;9.928;2022-09-21T04:31:27;9.70;70.70
6468;DHT22;3267;48.794;9.928;2022-09-21T04:33:57;9.70;70.80
6468;DHT22;3267;48.794;9.928;2022-09-21T04:36:24;9.70;70.80
6468;DHT22;3267;48.794;9.928;2022-09-21T04:38:50;9.80;71.10
6468;DHT22;3267;48.794;9.928;2022-09-21T04:42:20;12.20;73.10
6468;DHT22;3267;48.794;9.928;2022-09-21T05:03:36;8.30;69.20
6468;DHT22;3267;48.794;9.928;2022-09-21T05:31:46;9.70;70.20
6468;DHT22;3267;48.794;9.928;2022-09-21T05:42:24;9.40;71.00
6468;DHT22;3267;48.794;9.928;2022-09-21T06:04:16;9.50;71.80
6468;DHT22;3267;48.794;9.928;2022-09-21T06:10:32;9.20;70.40
6468;DHT22;3267;48.794;9.928;2022-09-21T06:13:29;9.80;70.90
6468;DHT22;3267;48.794;9.928;2022-09-21T06:16:34;11.20;76.30
6468;DHT22;3267;48.794;9.928;2022-09-21T06:20:19;7.80;69.70
6468;DHT22;3267;48.794;9.928;2022-09-21T06:23:19;7.30;69.20
6468;DHT22;3267;48.794;9.928;2022-09-21T06:25:55;12.70;73.50
6468;DHT22;3267;48.794;9.928;2022-09-21T06:51:58;10.50;71.00
6468;DHT22;3267;48.794;9.928;2022-09-21T06:58:55;8.90;71.10
6468;DHT22;3267;48.794;9.928;2022-09-21T07:12:22;11.00;71.20
6468;DHT22;3267;48.794;9.928;2022-09-21T07:15:33;10.90;74.40
6468;DHT22;3267;48.794;9.928;2022-09-21T07:25:18;11.60;73.40
6468;DHT22;3267;48.794;9.928;2022-09-21T07:32:55;11.60;71.90
6468;DHT22;3267;48.794;9.928;2022-09-21T07:36:29;12.00;73.10
6468;DHT22;3267;48.794;9.928;2022-09-21T07:38:57;10.70;71.80
6468;DHT22;3267;48.794;9.928;2022-09-21T07:41:26;10.60;72.80
6468;DHT22;3267;48.794;9.928;2022-09-21T07:54:40;12.20;73.00
6468;DHT22;3267;48.794;9.928;2022-09-21T07:57:32;12.20;76.70
6468;DHT22;3267;48.794;9.928;2022-09-21T08:39:21;16.20;77.20
6468;DHT22;3267;48.794;9.928;2022-09-21T08:58:41;14.50;74.00
6468;DHT22;3267;48.794;9.928;2022-09-21T10:55:18;20.50;92.10
6468;DHT22;3267;48.794;9.928;2022-09-21T11:06:11;19.00;83.40
6468;DHT22;3267;48.794;9.928;2022-09-21T11:13:31;19.00;85.30
6468;DHT22;3267;48.794;9.928;2022-09-21T11:16:30;20.80;85.50
6468;DHT22;3267;48.794;9.928;2022-09-21T11:22:25;23.70;90.30
6468;DHT22;3267;48.794;9.928;2022-09-21T11:25:27;20.40;89.40
6468;DHT22;3267;48.794;9.928;2022-09-21T11:28:31;20.50;79.40
6468;DHT22;3267;48.794;9.928;2022-09-21T12:04:39;21.20;75.50
6468;DHT22;3267;48.794;9.928;2022-09-21T12:49:29;21.10;74.80
6468;DHT22;3267;48.794;9.928;2022-09-21T13:20:14;20.80;73.40
6468;DHT22;3267;48.794;9.928;2022-09-21T13:45:49;23.90;69.50
6468;DHT22;3267;48.794;9.928;2022-09-21T13:48:53;23.50;69.10
6468;DHT22;3267;48.794;9.928;2022-09-21T14:05:39;25.10;68.30
6468;DHT22;3267;48.794;9.928;2022-09-21T14:31:21;24.70;63.60
6468;DHT22;3267;48.794;9.928;2022-09-21T14:37:47;24.00;65.80
6468;DHT22;3267;48.794;9.928;2022-09-21T14:41:09;23.70;65.00
6468;DHT22;3267;48.794;9.928;2022-09-21T15:44:33;31.20;56.20
6468;DHT22;3267;48.794;9.928;2022-09-21T15:54:45;27.60;60.60
6468;DHT22;3267;48.794;9.928;2022-09-21T15:57:42;25.00;59.90
6468;DHT22;3267;48.794;9.928;2022-09-21T16:01:11;24.40;61.50
6468;DHT22;3267;48.794;9.928;2022-09-21T16:23:05;22.10;66.10
6468;DHT22;3267;48.794;9.928;2022-09-21T17:03:41;20.70;65.70
6468;DHT22;3267;48.794;9.928;2022-09-21T17:30:46;19.00;66.10
6468;DHT22;3267;48.794;9.928;2022-09-21T17:33:22;18.80;66.10
6468;DHT22;3267;48.794;9.928;2022-09-21T17:35:49;18.80;66.20
6468;DHT22;3267;48.794;9.928;2022-09-21T17:38:16;18.80;65.90
6468;DHT22;3267;48.794;9.928;2022-09-21T17:40:42;18.70;67.20
6468;DHT22;3267;48.794;9.928;2022-09-21T17:46:09;19.40;71.10
6468;DHT22;3267;48.794;9.928;2022-09-21T17:48:38;18.90;69.70
6468;DHT22;3267;48.794;9.928;2022-09-21T17:51:07;18.90;71.70
6468;DHT22;3267;48.794;9.928;2022-09-21T17:53:33;18.90;70.00
6468;DHT22;3267;48.794;9.928;2022-09-21T17:56:35;19.00;71.40
6468;DHT22;3267;48.794;9.928;2022-09-21T17:59:04;18.90;70.80
6468;DHT22;3267;48.794;9.928;2022-09-21T18:01:39;19.00;73.70
6468;DHT22;3267;48.794;9.928;2022-09-21T18:04:06;19.00;72.60
6468;DHT22;3267;48.794;9.928;2022-09-21T18:06:34;18.90;72.20
6468;DHT22;3267;48.794;9.928;2022-09-21T18:09:01;18.80;72.70
6468;DHT22;3267;48.794;9.928;2022-09-21T18:11:56;18.90;73.20
6468;DHT22;3267;48.794;9.928;2022-09-21T18:20:02;19.30;73.60
6468;DHT22;3267;48.794;9.928;2022-09-21T18:23:04;18.50;72.80
6468;DHT22;3267;48.794;9.928;2022-09-21T18:25:33;18.30;72.10
6468;DHT22;3267;48.794;9.928;2022-09-21T18:28:11;18.20;72.30
6468;DHT22;3267;48.794;9.928;2022-09-21T18:30:46;19.00;72.90
6468;DHT22;3267;48.794;9.928;2022-09-21T18:33:20;17.90;72.60
6468;DHT22;3267;48.794;9.928;2022-09-21T18:36:04;17.90;72.00
6468;DHT22;3267;48.794;9.928;2022-09-21T18:38:40;17.70;71.60
6468;DHT22;3267;48.794;9.928;2022-09-21T18:44:38;17.60;72.60
6468;DHT22;3267;48.794;9.928;2022-09-21T18:47:12;17.60;72.80
6468;DHT22;3267;48.794;9.928;2022-09-21T18:50:31;19.20;75.80
6468;DHT22;3267;48.794;9.928;2022-09-21T18:53:07;17.70;72.90
6468;DHT22;3267;48.794;9.928;2022-09-21T18:55:36;17.50;71.40
6468;DHT22;3267;48.794;9.928;2022-09-21T18:58:02;17.30;71.30
6468;DHT22;3267;48.794;9.928;2022-09-21T19:00:29;17.40;71.60
6468;DHT22;3267;48.794;9.928;2022-09-21T19:03:03;17.20;70.70
6468;DHT22;3267;48.794;9.928;2022-09-21T19:05:31;17.20;72.60
6468;DHT22;3267;48.794;9.928;2022-09-21T19:08:18;17.20;71.40
6468;DHT22;3267;48.794;9.928;2022-09-21T19:10:53;18.60;73.00
6468;DHT22;3267;48.794;9.928;2022-09-21T19:13:33;18.50;73.10
6468;DHT22;3267;48.794;9.928;2022-09-21T19:16:07;17.10;71.80
6468;DHT22;3267;48.794;9.928;2022-09-21T19:21:26;16.90;70.20
6468;DHT22;3267;48.794;9.928;2022-09-21T19:24:25;16.80;70.70
6468;DHT22;3267;48.794;9.928;2022-09-21T19:27:02;16.70;71.20
6468;DHT22;3267;48.794;9.928;2022-09-21T19:29:50;16.60;69.70
6468;DHT22;3267;48.794;9.928;2022-09-21T19:32:45;16.50;69.50
6468;DHT22;3267;48.794;9.928;2022-09-21T19:37:50;16.40;71.10
6468;DHT22;3267;48.794;9.928;2022-09-21T19:40:18;16.40;70.30
6468;DHT22;3267;48.794;9.928;2022-09-21T19:48:15;16.70;72.50
6468;DHT22;3267;48.794;9.928;2022-09-21T19:50:46;17.00;73.70
6468;DHT22;3267;48.794;9.928;2022-09-21T19:53:15;16.70;72.50
6468;DHT22;3267;48.794;9.928;2022-09-21T19:56:00;16.70;72.10
6468;DHT22;3267;48.794;9.928;2022-09-21T19:58:45;16.50;71.80
6468;DHT22;3267;48.794;9.928;2022-09-21T20:01:34;16.40;72.00
6468;DHT22;3267;48.794;9.928;2022-09-21T20:04:02;16.20;71.10
6468;DHT22;3267;48.794;9.928;2022-09-21T20:06:37;18.00;72.70
6468;DHT22;3267;48.794;9.928;2022-09-21T20:09:13;16.30;71.70
6468;DHT22;3267;48.794;9.928;2022-09-21T20:12:03;16.10;71.50
6468;DHT22;3267;48.794;9.928;2022-09-21T20:14:39;16.10;70.90
6468;DHT22;3267;48.794;9.928;2022-09-21T20:17:12;16.10;71.20
6468;DHT22;3267;48.794;9.928;2022-09-21T20:20:11;16.40;71.00
6468;DHT22;3267;48.794;9.928;2022-09-21T20:22:46;15.90;70.60
6468;DHT22;3267;48.794;9.928;2022-09-21T20:25:24;15.70;68.60
6468;DHT22;3267;48.794;9.928;2022-09-21T20:28:06;15.50;67.30
6468;DHT22;3267;48.794;9.928;2022-09-21T20:31:09;15.20;67.80
6468;DHT22;3267;48.794;9.928;2022-09-21T20:41:38;17.90;70.20
6468;DHT22;3267;48.794;9.928;2022-09-21T20:44:26;14.10;65.60
6468;DHT22;3267;48.794;9.928;2022-09-21T20:51:37;14.00;64.40
6468;DHT22;3267;48.794;9.928;2022-09-21T20:54:12;16.70;70.00
6468;DHT22;3267;48.794;9.928;2022-09-21T20:56:53;16.80;70.40
6468;DHT22;3267;48.794;9.928;2022-09-21T20:59:45;13.10;63.20
6468;DHT22;3267;48.794;9.928;2022-09-21T21:02:15;17.60;70.50
6468;DHT22;3267;48.794;9.928;2022-09-21T21:05:09;15.40;66.50
6468;DHT22;3267;48.794;9.928;2022-09-21T21:07:44;14.80;67.40
6468;DHT22;3267;48.794;9.928;2022-09-21T21:10:15;15.60;69.10
6468;DHT22;3267;48.794;9.928;2022-09-21T21:20:17;12.70;62.70
6468;DHT22;3267;48.794;9.928;2022-09-21T21:23:20;13.60;63.90
